Terminal Aerodrome Forecast
Issued by NWS Pueblo, CO

Home | Current Version | Previous Version | Text Only | Print | Product List | Glossary On
Versions: 1 2 3 4 5 6 7 8 9 10 11 12 13 14 15 16 17 18 19 20 21 22 23 24 25 26 27 28
000
FTUS45 KPUB 210826 AAA
TAFCOS
TAF AMD
KCOS 210826Z 2108/2206 20008KT P6SM VCSH SCT040 BKN090
      TEMPO 2108/2112 -SHRA BKN040
     FM211400 13009KT P6SM BKN020 OVC040
     FM212000 17012KT P6SM SCT020 BKN050
     FM220200 14007KT P6SM SCT020 BKN050=

USA.gov is the U.S. government's official web portal to all federal, state and local government web resources and services.